sim
Sign-in with your pilot id or email,
or register
Callsign
Passwort

Schedule Details

Flight Number: OEO6048
Departure: Hannover Langenhagen Airport (EDDV) at 06:05
Arrival: Fuerteventura Airport (GCFV) at 11:15

Weather Information
Getting current METAR information for EDDV 211620Z 26009KT 230V290 9999 -RADZ SCT011 BKN017 09/08 Q1025 TEMPO 4500 BKN011
Getting current METAR information for GCFV 211630Z 04005KT 010V080 CAVOK 20/14 Q1020

Schedule Frequency

Route Map